Gold, Texas
Current Conditions -  °F | °C
As of 10:55 PM on Saturday 22 Nov 2014 (Local Time) from KT82 Reporting Station
Overcast Overcast  
Wind Chill: 57°   Ceiling: 11000
Heat Index: 57°   Visibility: 10mi
Dew Point: 55°   Wind: 6mph
Humidity: 92%   Direction: 70°ENE
Pressure: 29.79"   Gusts: NA
Location:  30.3069°N, 98.8978°W
Report Text: KT82 230455Z AUTO 07005KT 10SM SCT095 OVC110 14/13 A2979 RMK AO2 T01380125
Loading
Personal Weather Stations






























Interactive Weather Map New forecast layout! Learn more

10-Day Weather Forecast

Advertisements
Track Severe Weather on mobile